Strona główna
METAR-TAF:

METAR-TAF

Lotnisko :

Meriden-Markham Municipal Airport

Meriden, Connecticut, Stany Zjednoczone

Szerokość geograficzna: 41-30-35N, Długość geograficzna: 072-49-40W, wysokość: 31 m

Aktualna obserwacja pogody

Raport powstał 28 minut temu, godzina 10:53 UTC
Cisza
Temperatura 3°C
Wilgotność 100%
Ciśnienie 1006 hPa
Widzialność: 8.0 km
Zachmurzenie całkowite na wysokości 1000 ft
zamglenie

METAR: KMMK 191053Z AUTO 00000KT 5SM BR OVC010 03/03 A2972 RMK AO2 RAE22 SLP066 P0000 T00330028

czas: 06:21 (11:21 UTC)


TAF: brakujący

Obserwacja i prognoza pogody dla ponad 4000 lotnisk (raport METAR i TAF).

Dostępne stacje oznaczono żółtymi i czerwonymi punktami na mapie.

Najedź kursorem aby zobaczyć nazwę stacji.

Kliknij aby zobaczyć obserwacje i prognozy pogody.

Aby zmienić mapę: kliknij na zielony przycisk z czarnym krzyżykiem, aby powiększyć; na zielony przycisk z myślnikiem, aby pomniejszyć; na zielone strzałki, aby przejść do map sąsiednich.


METAR-TAF: